Terminal Aerodrome Forecast
Issued by NWS Sioux Falls, SD

Home | Current Version | Previous Version | Graphics & Text | Print | Product List | Glossary Off
Versions: 1 2 3 4 5 6 7 8 9 10 11 12 13 14 15 16 17 18 19

540
FTUS43 KFSD 151919 AAA
TAFHON
TAF AMD
KHON 151919Z 1519/1618 29016G21KT P6SM FEW150
     FM152300 28009KT P6SM SKC
     FM160100 25005KT P6SM SKC
     FM160800 18004KT P6SM SKC
     FM161600 19010KT P6SM SKC=

USA.gov is the U.S. government's official web portal to all federal, state and local government web resources and services.